Weather at Tlalnepantla de Baz Heliport

Public forecast

Using degrees Celsius for public forecast. Weather courtesy of forecast.io.

Closest aviation weather report (METAR) to Tlalnepantla de Baz Heliport

Closest report is Licenciado Benito Juarez International Airport, 9.3 nm (17.3 km) SE. Retrieved 2021/01/19 09:43 UTC (1 hour ago):

MMMX 190943Z 00000KT 10SM SKC 11/05 A3030 NOSIG RMK HZY

Closest aviation forecast (TAF) to Tlalnepantla de Baz Heliport

Closest forecast is Licenciado Benito Juarez International Airport, 9.3 nm (17.3 km) SE. Retrieved 2021/01/19 06:21 UTC (4 hours ago):

TAF MMMX 190414Z 1906/2012 00000KT P6SM SCT200 TX22/1921Z TN08/1912Z FM191800 14010KT P6SM SCT020 SCT200 TEMPO 1922/2002 6SM -RA BKN020 FM200400 14005KT 6SM HZ SCT020 BKN100